AFR654 ELLX-EGKK
Flight info
| Callsign | AFR654 |
|---|---|
| Flight time | 0h 58m |
| Altitude | 36000 |
| Route | DIK N852 TERLA L608 DENUT L610 TEBRA |
| Aircraft | A320/M-SDE3FGHIRWY/LB1 |
Departure
| Time | 2026-05-04 12:36 |
|---|---|
| Airport | Luxembourg-Findel International Airport (ELLX) |
Arrival
| Time | 2026-05-04 13:34 |
|---|---|
| Airport | London Gatwick Airport (EGKK) |
| Time | Latitude | Longitude | Altitude | Speed | Heading |
|---|---|---|---|---|---|
| 2026-05-04 11:46 | 49.63343 | 6.21694 | 1196 ft | 0 kts | 328° |
| 2026-05-04 12:16 | 49.63330 | 6.21706 | 1195 ft | 2 kts | 328° |
| 2026-05-04 12:16 | 49.63315 | 6.21720 | 1195 ft | 2 kts | 328° |
| 2026-05-04 12:16 | 49.63301 | 6.21734 | 1196 ft | 2 kts | 328° |
| 2026-05-04 12:16 | 49.63290 | 6.21744 | 1196 ft | 2 kts | 360° |
| 2026-05-04 12:17 | 49.63275 | 6.21736 | 1196 ft | 2 kts | 71° |
| 2026-05-04 12:17 | 49.63272 | 6.21724 | 1196 ft | 0 kts | 105° |
| 2026-05-04 12:20 | 49.63271 | 6.21741 | 1196 ft | 0 kts | 95° |
| 2026-05-04 12:30 | 49.63271 | 6.21792 | 1196 ft | 9 kts | 107° |
| 2026-05-04 12:31 | 49.63217 | 6.21861 | 1196 ft | 9 kts | 148° |
| 2026-05-04 12:31 | 49.63185 | 6.21986 | 1198 ft | 20 kts | 70° |
| 2026-05-04 12:31 | 49.63247 | 6.22200 | 1199 ft | 19 kts | 64° |
| 2026-05-04 12:31 | 49.63307 | 6.22393 | 1199 ft | 22 kts | 65° |
| 2026-05-04 12:32 | 49.63387 | 6.22621 | 1199 ft | 26 kts | 58° |
| 2026-05-04 12:32 | 49.63567 | 6.23100 | 1200 ft | 28 kts | 60° |
| 2026-05-04 12:32 | 49.63653 | 6.23321 | 1200 ft | 14 kts | 57° |
| 2026-05-04 12:33 | 49.63664 | 6.23428 | 1202 ft | 10 kts | 126° |
| 2026-05-04 12:33 | 49.63654 | 6.23441 | 1203 ft | 0 kts | 141° |
| 2026-05-04 12:34 | 49.63644 | 6.23453 | 1205 ft | 7 kts | 145° |
| 2026-05-04 12:34 | 49.63589 | 6.23497 | 1221 ft | 8 kts | 153° |
| 2026-05-04 12:35 | 49.63530 | 6.23515 | 1230 ft | 14 kts | 198° |
| 2026-05-04 12:35 | 49.63428 | 6.23265 | 1228 ft | 56 kts | 240° |
| 2026-05-04 12:35 | 49.63110 | 6.22419 | 1222 ft | 123 kts | 240° |
| 2026-05-04 12:35 | 49.62594 | 6.21038 | 1278 ft | 167 kts | 239° |
| 2026-05-04 12:36 | 49.61994 | 6.19456 | 1802 ft | 177 kts | 238° |
| 2026-05-04 12:36 | 49.61513 | 6.18208 | 2255 ft | 186 kts | 236° |
| 2026-05-04 12:36 | 49.60803 | 6.16395 | 2583 ft | 215 kts | 236° |
| 2026-05-04 12:36 | 49.59918 | 6.14211 | 2431 ft | 267 kts | 236° |
| 2026-05-04 12:37 | 49.58922 | 6.11676 | 3227 ft | 271 kts | 238° |
| 2026-05-04 12:37 | 49.58021 | 6.09229 | 4782 ft | 255 kts | 237° |
| 2026-05-04 12:37 | 49.57165 | 6.06870 | 6040 ft | 253 kts | 237° |
| 2026-05-04 12:37 | 49.56553 | 6.04284 | 7010 ft | 264 kts | 254° |
| 2026-05-04 12:38 | 49.56459 | 6.01419 | 7868 ft | 275 kts | 270° |
| 2026-05-04 12:38 | 49.56952 | 5.98512 | 8520 ft | 286 kts | 290° |
| 2026-05-04 12:38 | 49.58069 | 5.95933 | 9175 ft | 296 kts | 310° |
| 2026-05-04 12:38 | 49.59740 | 5.94019 | 9837 ft | 305 kts | 332° |
| 2026-05-04 12:39 | 49.61785 | 5.93080 | 10440 ft | 312 kts | 353° |
| 2026-05-04 12:39 | 49.64064 | 5.92849 | 11085 ft | 325 kts | 353° |
| 2026-05-04 12:39 | 49.66343 | 5.92402 | 11711 ft | 336 kts | 350° |
| 2026-05-04 12:39 | 49.68687 | 5.91800 | 12353 ft | 346 kts | 348° |
| 2026-05-04 12:40 | 49.71087 | 5.91145 | 13004 ft | 355 kts | 348° |
| 2026-05-04 12:40 | 49.73547 | 5.90492 | 13668 ft | 362 kts | 349° |
| 2026-05-04 12:40 | 49.76054 | 5.89829 | 14273 ft | 368 kts | 345° |
| 2026-05-04 12:40 | 49.78447 | 5.88419 | 14875 ft | 370 kts | 330° |
| 2026-05-04 12:41 | 49.80756 | 5.86586 | 15502 ft | 376 kts | 330° |
| 2026-05-04 12:41 | 49.83104 | 5.84701 | 15968 ft | 384 kts | 330° |
| 2026-05-04 12:41 | 49.85478 | 5.82783 | 16741 ft | 385 kts | 330° |
| 2026-05-04 12:41 | 49.87874 | 5.80844 | 17444 ft | 389 kts | 330° |
| 2026-05-04 12:42 | 49.90272 | 5.78904 | 18082 ft | 393 kts | 330° |
| 2026-05-04 12:42 | 49.92715 | 5.76931 | 18666 ft | 397 kts | 330° |
| 2026-05-04 12:42 | 49.95176 | 5.74945 | 19201 ft | 401 kts | 330° |
| 2026-05-04 12:42 | 49.97663 | 5.72941 | 19765 ft | 404 kts | 330° |
| 2026-05-04 12:43 | 50.00167 | 5.70918 | 20317 ft | 407 kts | 330° |
| 2026-05-04 12:43 | 50.02692 | 5.68875 | 20866 ft | 410 kts | 329° |
| 2026-05-04 12:43 | 50.05232 | 5.66821 | 21402 ft | 414 kts | 329° |
| 2026-05-04 12:43 | 50.07804 | 5.64737 | 21955 ft | 417 kts | 329° |
| 2026-05-04 12:44 | 50.10382 | 5.62643 | 22498 ft | 420 kts | 329° |
| 2026-05-04 12:44 | 50.12886 | 5.60306 | 23010 ft | 419 kts | 318° |
| 2026-05-04 12:44 | 50.15117 | 5.57375 | 23511 ft | 421 kts | 315° |
| 2026-05-04 12:44 | 50.17339 | 5.54387 | 23973 ft | 423 kts | 315° |
| 2026-05-04 12:45 | 50.19568 | 5.51366 | 24415 ft | 426 kts | 315° |
| 2026-05-04 12:45 | 50.21815 | 5.48310 | 24815 ft | 430 kts | 315° |
| 2026-05-04 12:45 | 50.24079 | 5.45231 | 25198 ft | 434 kts | 315° |
| 2026-05-04 12:45 | 50.26363 | 5.42134 | 25622 ft | 436 kts | 315° |
| 2026-05-04 12:46 | 50.28663 | 5.39020 | 26056 ft | 439 kts | 315° |
| 2026-05-04 12:46 | 50.30975 | 5.35883 | 26492 ft | 440 kts | 314° |
| 2026-05-04 12:46 | 50.33291 | 5.32730 | 26921 ft | 441 kts | 314° |
| 2026-05-04 12:46 | 50.35633 | 5.29534 | 27340 ft | 443 kts | 314° |
| 2026-05-04 12:47 | 50.37939 | 5.26381 | 27730 ft | 445 kts | 314° |
| 2026-05-04 12:47 | 50.40276 | 5.23182 | 28144 ft | 448 kts | 314° |
| 2026-05-04 12:47 | 50.42627 | 5.19959 | 28581 ft | 450 kts | 314° |
| 2026-05-04 12:47 | 50.44987 | 5.16717 | 29000 ft | 452 kts | 314° |
| 2026-05-04 12:48 | 50.47361 | 5.13457 | 29423 ft | 455 kts | 314° |
| 2026-05-04 12:48 | 50.49751 | 5.10176 | 29879 ft | 457 kts | 314° |
| 2026-05-04 12:48 | 50.52159 | 5.06872 | 30183 ft | 462 kts | 315° |
| 2026-05-04 12:48 | 50.54583 | 5.03542 | 30426 ft | 464 kts | 314° |
| 2026-05-04 12:49 | 50.57018 | 5.00187 | 30699 ft | 466 kts | 314° |
| 2026-05-04 12:49 | 50.59461 | 4.96809 | 31012 ft | 468 kts | 314° |
| 2026-05-04 12:49 | 50.61845 | 4.93504 | 31353 ft | 468 kts | 314° |
| 2026-05-04 12:49 | 50.64282 | 4.90124 | 31774 ft | 466 kts | 313° |
| 2026-05-04 12:50 | 50.66712 | 4.86752 | 32204 ft | 464 kts | 313° |
| 2026-05-04 12:50 | 50.69130 | 4.83391 | 32619 ft | 463 kts | 313° |
| 2026-05-04 12:50 | 50.71541 | 4.80034 | 33025 ft | 461 kts | 313° |
| 2026-05-04 12:50 | 50.73869 | 4.76547 | 33422 ft | 453 kts | 304° |
| 2026-05-04 12:51 | 50.75740 | 4.72641 | 33803 ft | 448 kts | 300° |
| 2026-05-04 12:51 | 50.77565 | 4.68669 | 34162 ft | 446 kts | 300° |
| 2026-05-04 12:51 | 50.79382 | 4.64694 | 34508 ft | 446 kts | 300° |
| 2026-05-04 12:51 | 50.81216 | 4.60666 | 34828 ft | 445 kts | 300° |
| 2026-05-04 12:52 | 50.83022 | 4.56689 | 35126 ft | 445 kts | 300° |
| 2026-05-04 12:52 | 50.84823 | 4.52706 | 35413 ft | 445 kts | 300° |
| 2026-05-04 12:52 | 50.86622 | 4.48723 | 35692 ft | 445 kts | 300° |
| 2026-05-04 12:52 | 50.88424 | 4.44739 | 35934 ft | 446 kts | 301° |
| 2026-05-04 12:53 | 50.90230 | 4.40748 | 35994 ft | 445 kts | 301° |
| 2026-05-04 12:53 | 50.93828 | 4.32778 | 36000 ft | 444 kts | 300° |
| 2026-05-04 12:54 | 50.97411 | 4.24810 | 35999 ft | 444 kts | 300° |
| 2026-05-04 12:54 | 51.00984 | 4.16831 | 35997 ft | 443 kts | 300° |
| 2026-05-04 12:55 | 51.04555 | 4.08845 | 35995 ft | 443 kts | 300° |
| 2026-05-04 12:55 | 51.08121 | 4.00845 | 35991 ft | 443 kts | 300° |
| 2026-05-04 12:56 | 51.11675 | 3.92827 | 35982 ft | 443 kts | 300° |
| 2026-05-04 12:56 | 51.15223 | 3.84813 | 35983 ft | 443 kts | 300° |
| 2026-05-04 12:56 | 51.16840 | 3.80671 | 35984 ft | 436 kts | 289° |
| 2026-05-04 12:57 | 51.18010 | 3.76230 | 35989 ft | 434 kts | 287° |
| 2026-05-04 12:57 | 51.20306 | 3.67171 | 35982 ft | 435 kts | 287° |
| 2026-05-04 12:58 | 51.22561 | 3.58195 | 35982 ft | 436 kts | 287° |
| 2026-05-04 12:58 | 51.24815 | 3.49207 | 35984 ft | 436 kts | 287° |
| 2026-05-04 12:59 | 51.26968 | 3.40165 | 35989 ft | 433 kts | 281° |
| 2026-05-04 12:59 | 51.28219 | 3.30813 | 36012 ft | 431 kts | 277° |
| 2026-05-04 13:00 | 51.29417 | 3.21433 | 36016 ft | 431 kts | 277° |
| 2026-05-04 13:00 | 51.30617 | 3.12032 | 36009 ft | 432 kts | 277° |
| 2026-05-04 13:01 | 51.31806 | 3.02610 | 35476 ft | 436 kts | 276° |
| 2026-05-04 13:01 | 51.32403 | 2.97819 | 34358 ft | 441 kts | 276° |
| 2026-05-04 13:01 | 51.33008 | 2.93018 | 33513 ft | 435 kts | 275° |
| 2026-05-04 13:01 | 51.33606 | 2.88305 | 32945 ft | 431 kts | 275° |
| 2026-05-04 13:02 | 51.34194 | 2.83629 | 32403 ft | 428 kts | 276° |
| 2026-05-04 13:02 | 51.34774 | 2.78977 | 31851 ft | 425 kts | 276° |
| 2026-05-04 13:02 | 51.35345 | 2.74354 | 31310 ft | 422 kts | 276° |
| 2026-05-04 13:02 | 51.35912 | 2.69750 | 30780 ft | 420 kts | 276° |
| 2026-05-04 13:03 | 51.36294 | 2.66670 | 30433 ft | 418 kts | 276° |
| 2026-05-04 13:03 | 51.36855 | 2.62115 | 29888 ft | 415 kts | 276° |
| 2026-05-04 13:03 | 51.37410 | 2.57595 | 29282 ft | 413 kts | 277° |
| 2026-05-04 13:03 | 51.37960 | 2.53110 | 28702 ft | 410 kts | 277° |
| 2026-05-04 13:04 | 51.38513 | 2.48640 | 28120 ft | 408 kts | 277° |
| 2026-05-04 13:04 | 51.39065 | 2.44209 | 27560 ft | 405 kts | 277° |
| 2026-05-04 13:04 | 51.39609 | 2.39801 | 27003 ft | 402 kts | 277° |
| 2026-05-04 13:04 | 51.40144 | 2.35418 | 26479 ft | 400 kts | 278° |
| 2026-05-04 13:05 | 51.40672 | 2.31064 | 25937 ft | 397 kts | 278° |
| 2026-05-04 13:05 | 51.41191 | 2.26741 | 25428 ft | 394 kts | 278° |
| 2026-05-04 13:05 | 51.41709 | 2.22440 | 24905 ft | 391 kts | 278° |
| 2026-05-04 13:05 | 51.42230 | 2.18118 | 24402 ft | 389 kts | 278° |
| 2026-05-04 13:06 | 51.42740 | 2.13883 | 23907 ft | 386 kts | 278° |
| 2026-05-04 13:06 | 51.43239 | 2.09715 | 23388 ft | 383 kts | 278° |
| 2026-05-04 13:06 | 51.43738 | 2.05484 | 22797 ft | 381 kts | 278° |
| 2026-05-04 13:06 | 51.44228 | 2.01323 | 22232 ft | 379 kts | 278° |
| 2026-05-04 13:07 | 51.44714 | 1.97185 | 21677 ft | 377 kts | 278° |
| 2026-05-04 13:07 | 51.45201 | 1.93056 | 21128 ft | 375 kts | 279° |
| 2026-05-04 13:07 | 51.45682 | 1.88962 | 20593 ft | 374 kts | 279° |
| 2026-05-04 13:07 | 51.46161 | 1.84871 | 20068 ft | 372 kts | 279° |
| 2026-05-04 13:08 | 51.46636 | 1.80780 | 19546 ft | 371 kts | 279° |
| 2026-05-04 13:08 | 51.47104 | 1.76735 | 19041 ft | 370 kts | 279° |
| 2026-05-04 13:08 | 51.47571 | 1.72678 | 18541 ft | 369 kts | 279° |
| 2026-05-04 13:08 | 51.48036 | 1.68624 | 18004 ft | 369 kts | 279° |
| 2026-05-04 13:09 | 51.48456 | 1.64584 | 17440 ft | 367 kts | 274° |
| 2026-05-04 13:09 | 51.48427 | 1.60519 | 16890 ft | 364 kts | 261° |
| 2026-05-04 13:09 | 51.47848 | 1.56584 | 16339 ft | 362 kts | 249° |
| 2026-05-04 13:09 | 51.46977 | 1.52805 | 15807 ft | 361 kts | 249° |
| 2026-05-04 13:10 | 51.46101 | 1.49034 | 15280 ft | 360 kts | 249° |
| 2026-05-04 13:10 | 51.45230 | 1.45274 | 14765 ft | 359 kts | 249° |
| 2026-05-04 13:10 | 51.44359 | 1.41533 | 14255 ft | 358 kts | 247° |
| 2026-05-04 13:10 | 51.43157 | 1.38050 | 13751 ft | 356 kts | 233° |
| 2026-05-04 13:11 | 51.41487 | 1.35233 | 13679 ft | 339 kts | 219° |
| 2026-05-04 13:11 | 51.39635 | 1.33022 | 13944 ft | 328 kts | 216° |
| 2026-05-04 13:11 | 51.37810 | 1.30860 | 14012 ft | 326 kts | 217° |
| 2026-05-04 13:11 | 51.35995 | 1.28693 | 14014 ft | 326 kts | 217° |
| 2026-05-04 13:12 | 51.34159 | 1.26508 | 13362 ft | 333 kts | 217° |
| 2026-05-04 13:12 | 51.32313 | 1.24319 | 13071 ft | 326 kts | 216° |
| 2026-05-04 13:12 | 51.30510 | 1.22185 | 13009 ft | 321 kts | 216° |
| 2026-05-04 13:12 | 51.28717 | 1.20068 | 12746 ft | 323 kts | 216° |
| 2026-05-04 13:13 | 51.26894 | 1.17912 | 12096 ft | 328 kts | 217° |
| 2026-05-04 13:13 | 51.25051 | 1.15727 | 11458 ft | 331 kts | 217° |
| 2026-05-04 13:13 | 51.23198 | 1.13548 | 10901 ft | 332 kts | 217° |
| 2026-05-04 13:13 | 51.21334 | 1.11370 | 10338 ft | 332 kts | 217° |
| 2026-05-04 13:14 | 51.19465 | 1.09191 | 9767 ft | 332 kts | 217° |
| 2026-05-04 13:14 | 51.17632 | 1.07072 | 9337 ft | 317 kts | 217° |
| 2026-05-04 13:14 | 51.15898 | 1.05076 | 9055 ft | 299 kts | 217° |
| 2026-05-04 13:14 | 51.14279 | 1.03176 | 9017 ft | 283 kts | 221° |
| 2026-05-04 13:15 | 51.13106 | 1.00732 | 9021 ft | 279 kts | 246° |
| 2026-05-04 13:15 | 51.12410 | 0.97838 | 9027 ft | 279 kts | 251° |
| 2026-05-04 13:15 | 51.11786 | 0.94916 | 9025 ft | 280 kts | 251° |
| 2026-05-04 13:15 | 51.11180 | 0.91982 | 9016 ft | 278 kts | 251° |
| 2026-05-04 13:16 | 51.10586 | 0.89053 | 9015 ft | 278 kts | 251° |
| 2026-05-04 13:16 | 51.09991 | 0.86124 | 9012 ft | 278 kts | 251° |
| 2026-05-04 13:16 | 51.09394 | 0.83192 | 9009 ft | 279 kts | 251° |
| 2026-05-04 13:16 | 51.08793 | 0.80252 | 9006 ft | 280 kts | 251° |
| 2026-05-04 13:17 | 51.08196 | 0.77317 | 9007 ft | 279 kts | 251° |
| 2026-05-04 13:17 | 51.07597 | 0.74384 | 9004 ft | 278 kts | 251° |
| 2026-05-04 13:17 | 51.07002 | 0.71463 | 9008 ft | 278 kts | 251° |
| 2026-05-04 13:17 | 51.06402 | 0.68533 | 8899 ft | 280 kts | 251° |
| 2026-05-04 13:18 | 51.05802 | 0.65608 | 8630 ft | 277 kts | 251° |
| 2026-05-04 13:18 | 51.05205 | 0.62722 | 8375 ft | 265 kts | 251° |
| 2026-05-04 13:18 | 51.04647 | 0.60031 | 8119 ft | 254 kts | 251° |
| 2026-05-04 13:18 | 51.04107 | 0.57438 | 8005 ft | 243 kts | 251° |
| 2026-05-04 13:19 | 51.03573 | 0.54873 | 8004 ft | 241 kts | 251° |
| 2026-05-04 13:19 | 51.03045 | 0.52337 | 8004 ft | 242 kts | 251° |
| 2026-05-04 13:19 | 51.02515 | 0.49798 | 8010 ft | 242 kts | 251° |
| 2026-05-04 13:19 | 51.01978 | 0.47229 | 8009 ft | 242 kts | 251° |
| 2026-05-04 13:20 | 51.01451 | 0.44684 | 8010 ft | 243 kts | 251° |
| 2026-05-04 13:20 | 51.00927 | 0.42128 | 8008 ft | 243 kts | 251° |
| 2026-05-04 13:20 | 51.00408 | 0.39577 | 8006 ft | 243 kts | 251° |
| 2026-05-04 13:20 | 51.00075 | 0.37947 | 8010 ft | 243 kts | 251° |
| 2026-05-04 13:21 | 50.99558 | 0.35396 | 8006 ft | 242 kts | 251° |
| 2026-05-04 13:21 | 50.99041 | 0.32861 | 8011 ft | 242 kts | 251° |
| 2026-05-04 13:21 | 50.98519 | 0.30311 | 8005 ft | 243 kts | 251° |
| 2026-05-04 13:21 | 50.97992 | 0.27726 | 8007 ft | 243 kts | 251° |
| 2026-05-04 13:22 | 50.97476 | 0.25210 | 8010 ft | 243 kts | 251° |
| 2026-05-04 13:22 | 50.96947 | 0.22632 | 8013 ft | 243 kts | 251° |
| 2026-05-04 13:22 | 50.96431 | 0.20077 | 8007 ft | 243 kts | 254° |
| 2026-05-04 13:22 | 50.96313 | 0.17423 | 8014 ft | 244 kts | 273° |
| 2026-05-04 13:23 | 50.96485 | 0.14746 | 8014 ft | 244 kts | 275° |
| 2026-05-04 13:23 | 50.96677 | 0.12074 | 8011 ft | 244 kts | 275° |
| 2026-05-04 13:23 | 50.96869 | 0.09404 | 8015 ft | 244 kts | 275° |
| 2026-05-04 13:23 | 50.97054 | 0.06726 | 8013 ft | 245 kts | 275° |
| 2026-05-04 13:24 | 50.97241 | 0.04043 | 8017 ft | 244 kts | 275° |
| 2026-05-04 13:24 | 50.97430 | 0.01370 | 8012 ft | 244 kts | 275° |
| 2026-05-04 13:24 | 50.97617 | -0.01303 | 8005 ft | 246 kts | 275° |
| 2026-05-04 13:25 | 50.97991 | -0.06729 | 7344 ft | 247 kts | 275° |
| 2026-05-04 13:25 | 50.98179 | -0.09429 | 7025 ft | 246 kts | 275° |
| 2026-05-04 13:25 | 50.98366 | -0.12125 | 6702 ft | 245 kts | 275° |
| 2026-05-04 13:25 | 50.98552 | -0.14791 | 6377 ft | 239 kts | 275° |
| 2026-05-04 13:26 | 50.98724 | -0.17366 | 6040 ft | 230 kts | 275° |
| 2026-05-04 13:26 | 50.98887 | -0.19850 | 5713 ft | 223 kts | 275° |
| 2026-05-04 13:26 | 50.99049 | -0.22300 | 5374 ft | 218 kts | 275° |
| 2026-05-04 13:26 | 50.99201 | -0.24682 | 5045 ft | 216 kts | 275° |
| 2026-05-04 13:27 | 50.99348 | -0.27052 | 4718 ft | 217 kts | 275° |
| 2026-05-04 13:27 | 50.99493 | -0.29453 | 4388 ft | 220 kts | 276° |
| 2026-05-04 13:27 | 50.99891 | -0.31801 | 4053 ft | 222 kts | 294° |
| 2026-05-04 13:27 | 51.00570 | -0.34011 | 3726 ft | 224 kts | 298° |
| 2026-05-04 13:28 | 51.01294 | -0.36205 | 3389 ft | 223 kts | 298° |
| 2026-05-04 13:28 | 51.02007 | -0.38359 | 3075 ft | 217 kts | 298° |
| 2026-05-04 13:28 | 51.02685 | -0.40413 | 2995 ft | 203 kts | 298° |
| 2026-05-04 13:28 | 51.03325 | -0.42350 | 3034 ft | 194 kts | 298° |
| 2026-05-04 13:29 | 51.03945 | -0.44228 | 3007 ft | 191 kts | 298° |
| 2026-05-04 13:29 | 51.04594 | -0.46087 | 2996 ft | 190 kts | 308° |
| 2026-05-04 13:29 | 51.05681 | -0.47219 | 2998 ft | 187 kts | 349° |
| 2026-05-04 13:29 | 51.06941 | -0.46953 | 2999 ft | 186 kts | 30° |
| 2026-05-04 13:30 | 51.07956 | -0.45682 | 2943 ft | 189 kts | 44° |
| 2026-05-04 13:30 | 51.08892 | -0.44204 | 2573 ft | 190 kts | 46° |
| 2026-05-04 13:30 | 51.09531 | -0.43165 | 2333 ft | 191 kts | 46° |
| 2026-05-04 13:30 | 51.10430 | -0.41695 | 2036 ft | 188 kts | 46° |
| 2026-05-04 13:31 | 51.11327 | -0.40225 | 1997 ft | 173 kts | 46° |
| 2026-05-04 13:31 | 51.12025 | -0.38729 | 1997 ft | 167 kts | 67° |
| 2026-05-04 13:31 | 51.12319 | -0.36969 | 2008 ft | 164 kts | 77° |
| 2026-05-04 13:31 | 51.12566 | -0.35199 | 1979 ft | 164 kts | 77° |
| 2026-05-04 13:32 | 51.12817 | -0.33404 | 1831 ft | 164 kts | 77° |
| 2026-05-04 13:32 | 51.13064 | -0.31635 | 1637 ft | 163 kts | 77° |
| 2026-05-04 13:32 | 51.13313 | -0.29850 | 1419 ft | 162 kts | 77° |
| 2026-05-04 13:32 | 51.13549 | -0.28150 | 1211 ft | 154 kts | 77° |
| 2026-05-04 13:33 | 51.13776 | -0.26522 | 1000 ft | 148 kts | 77° |
| 2026-05-04 13:33 | 51.13992 | -0.24944 | 785 ft | 145 kts | 78° |
| 2026-05-04 13:33 | 51.14208 | -0.23386 | 578 ft | 144 kts | 76° |
| 2026-05-04 13:33 | 51.14429 | -0.21846 | 410 ft | 142 kts | 78° |
| 2026-05-04 13:34 | 51.14639 | -0.20307 | 225 ft | 139 kts | 77° |
| 2026-05-04 13:34 | 51.14828 | -0.18949 | 216 ft | 108 kts | 78° |
| 2026-05-04 13:34 | 51.14948 | -0.18083 | 212 ft | 48 kts | 75° |
| 2026-05-04 13:34 | 51.15056 | -0.17801 | 215 ft | 5 kts | 46° |
| 2026-05-04 13:35 | 51.15058 | -0.17798 | 216 ft | 0 kts | 45° |
| 2026-05-04 13:35 | 51.15068 | -0.17784 | 207 ft | 5 kts | 38° |
| 2026-05-04 13:35 | 51.15127 | -0.17769 | 212 ft | 12 kts | 359° |
| 2026-05-04 13:36 | 51.15216 | -0.17781 | 206 ft | 13 kts | 351° |
| 2026-05-04 13:36 | 51.15268 | -0.17693 | 208 ft | 10 kts | 73° |
| 2026-05-04 13:36 | 51.15276 | -0.17616 | 208 ft | 7 kts | 81° |
| 2026-05-04 13:36 | 51.15284 | -0.17565 | 205 ft | 0 kts | 74° |
| 2026-05-04 13:37 | 51.15290 | -0.17531 | 211 ft | 6 kts | 73° |
| 2026-05-04 13:37 | 51.15296 | -0.17499 | 209 ft | 3 kts | 75° |
| 2026-05-04 13:37 | 51.15301 | -0.17471 | 207 ft | 0 kts | 75° |
| 2026-05-04 13:38 | 51.15305 | -0.17432 | 215 ft | 7 kts | 79° |
| 2026-05-04 13:38 | 51.15354 | -0.17378 | 209 ft | 12 kts | 6° |
| 2026-05-04 13:38 | 51.15417 | -0.17392 | 205 ft | 9 kts | 349° |
| 2026-05-04 13:38 | 51.15471 | -0.17410 | 208 ft | 9 kts | 348° |
| 2026-05-04 13:39 | 51.15539 | -0.17435 | 211 ft | 12 kts | 346° |
| 2026-05-04 13:39 | 51.15627 | -0.17471 | 209 ft | 14 kts | 346° |
| 2026-05-04 13:39 | 51.15682 | -0.17492 | 208 ft | 0 kts | 348° |
| 2026-05-04 13:39 | 51.15701 | -0.17498 | 215 ft | 9 kts | 348° |
| 2026-05-04 13:40 | 51.15750 | -0.17568 | 213 ft | 12 kts | 278° |
| 2026-05-04 13:40 | 51.15734 | -0.17711 | 214 ft | 15 kts | 257° |
| 2026-05-04 13:40 | 51.15718 | -0.17805 | 213 ft | 7 kts | 230° |
| 2026-05-04 13:40 | 51.15666 | -0.17799 | 210 ft | 6 kts | 167° |
| 2026-05-04 13:41 | 51.15653 | -0.17794 | 215 ft | 0 kts | 166° |